sensor_id;sensor_type;location;lat;lon;timestamp;P1;durP1;ratioP1;P2;durP2;ratioP2
39958;SDS011;25639;53.634;9.880;2023-06-22T00:01:01;7.00;;;4.18;;
39958;SDS011;25639;53.634;9.880;2023-06-22T00:03:26;6.18;;;4.20;;
39958;SDS011;25639;53.634;9.880;2023-06-22T00:05:52;6.72;;;4.10;;
39958;SDS011;25639;53.634;9.880;2023-06-22T00:08:18;4.65;;;4.07;;
39958;SDS011;25639;53.634;9.880;2023-06-22T00:10:44;6.22;;;4.22;;
39958;SDS011;25639;53.634;9.880;2023-06-22T00:13:10;7.25;;;4.10;;
39958;SDS011;25639;53.634;9.880;2023-06-22T00:15:36;5.22;;;3.75;;
39958;SDS011;25639;53.634;9.880;2023-06-22T00:18:03;4.85;;;3.70;;
39958;SDS011;25639;53.634;9.880;2023-06-22T00:20:29;7.63;;;4.45;;
39958;SDS011;25639;53.634;9.880;2023-06-22T00:22:55;6.15;;;4.38;;
39958;SDS011;25639;53.634;9.880;2023-06-22T00:25:21;5.85;;;3.90;;
39958;SDS011;25639;53.634;9.880;2023-06-22T00:27:47;6.63;;;4.50;;
39958;SDS011;25639;53.634;9.880;2023-06-22T00:30:13;6.68;;;4.90;;
39958;SDS011;25639;53.634;9.880;2023-06-22T00:32:39;7.57;;;4.40;;
39958;SDS011;25639;53.634;9.880;2023-06-22T00:35:05;6.45;;;4.63;;
39958;SDS011;25639;53.634;9.880;2023-06-22T00:37:30;7.88;;;4.60;;
39958;SDS011;25639;53.634;9.880;2023-06-22T00:39:56;5.50;;;3.80;;
39958;SDS011;25639;53.634;9.880;2023-06-22T00:42:21;5.93;;;4.20;;
39958;SDS011;25639;53.634;9.880;2023-06-22T00:44:47;9.25;;;4.90;;
39958;SDS011;25639;53.634;9.880;2023-06-22T00:47:15;7.05;;;4.07;;
39958;SDS011;25639;53.634;9.880;2023-06-22T00:49:43;6.30;;;4.05;;
39958;SDS011;25639;53.634;9.880;2023-06-22T00:52:09;5.13;;;3.80;;
39958;SDS011;25639;53.634;9.880;2023-06-22T00:54:38;6.43;;;4.35;;
39958;SDS011;25639;53.634;9.880;2023-06-22T00:57:05;6.53;;;4.63;;
39958;SDS011;25639;53.634;9.880;2023-06-22T00:59:30;6.00;;;4.55;;
39958;SDS011;25639;53.634;9.880;2023-06-22T01:01:57;4.93;;;4.35;;
39958;SDS011;25639;53.634;9.880;2023-06-22T01:04:24;7.35;;;4.63;;
39958;SDS011;25639;53.634;9.880;2023-06-22T01:07:02;6.07;;;4.40;;
39958;SDS011;25639;53.634;9.880;2023-06-22T01:09:57;6.85;;;4.63;;
39958;SDS011;25639;53.634;9.880;2023-06-22T01:12:32;5.78;;;4.30;;
39958;SDS011;25639;53.634;9.880;2023-06-22T01:15:05;6.40;;;4.50;;
39958;SDS011;25639;53.634;9.880;2023-06-22T01:17:35;6.35;;;4.47;;
39958;SDS011;25639;53.634;9.880;2023-06-22T01:20:04;5.13;;;4.05;;
39958;SDS011;25639;53.634;9.880;2023-06-22T01:22:33;5.57;;;4.43;;
39958;SDS011;25639;53.634;9.880;2023-06-22T01:25:20;5.47;;;4.28;;
39958;SDS011;25639;53.634;9.880;2023-06-22T01:27:58;6.80;;;4.28;;
39958;SDS011;25639;53.634;9.880;2023-06-22T01:30:45;7.65;;;4.30;;
39958;SDS011;25639;53.634;9.880;2023-06-22T01:33:13;5.20;;;4.03;;
39958;SDS011;25639;53.634;9.880;2023-06-22T01:35:39;5.72;;;4.30;;
39958;SDS011;25639;53.634;9.880;2023-06-22T01:38:05;5.05;;;3.97;;
39958;SDS011;25639;53.634;9.880;2023-06-22T01:40:32;4.85;;;3.95;;
39958;SDS011;25639;53.634;9.880;2023-06-22T01:43:00;8.23;;;4.95;;
39958;SDS011;25639;53.634;9.880;2023-06-22T01:45:26;5.35;;;4.10;;
39958;SDS011;25639;53.634;9.880;2023-06-22T01:47:52;5.55;;;4.28;;
39958;SDS011;25639;53.634;9.880;2023-06-22T01:50:19;5.78;;;4.18;;
39958;SDS011;25639;53.634;9.880;2023-06-22T01:52:44;5.00;;;4.28;;
39958;SDS011;25639;53.634;9.880;2023-06-22T01:55:10;5.65;;;3.92;;
39958;SDS011;25639;53.634;9.880;2023-06-22T01:57:35;7.03;;;3.85;;
39958;SDS011;25639;53.634;9.880;2023-06-22T02:00:01;6.30;;;4.28;;
39958;SDS011;25639;53.634;9.880;2023-06-22T02:02:31;6.53;;;4.25;;
39958;SDS011;25639;53.634;9.880;2023-06-22T02:05:08;5.60;;;4.13;;
39958;SDS011;25639;53.634;9.880;2023-06-22T02:10:11;4.32;;;3.58;;
39958;SDS011;25639;53.634;9.880;2023-06-22T02:12:41;4.82;;;3.67;;
39958;SDS011;25639;53.634;9.880;2023-06-22T02:15:09;7.03;;;4.30;;
39958;SDS011;25639;53.634;9.880;2023-06-22T02:17:35;7.55;;;4.88;;
39958;SDS011;25639;53.634;9.880;2023-06-22T02:20:02;7.18;;;4.85;;
39958;SDS011;25639;53.634;9.880;2023-06-22T02:22:33;5.13;;;4.00;;
39958;SDS011;25639;53.634;9.880;2023-06-22T02:24:59;6.78;;;4.63;;
39958;SDS011;25639;53.634;9.880;2023-06-22T02:27:24;6.57;;;4.03;;
39958;SDS011;25639;53.634;9.880;2023-06-22T02:29:49;7.20;;;4.85;;
39958;SDS011;25639;53.634;9.880;2023-06-22T02:32:15;5.63;;;4.38;;
39958;SDS011;25639;53.634;9.880;2023-06-22T02:34:42;5.85;;;4.43;;
39958;SDS011;25639;53.634;9.880;2023-06-22T02:37:12;5.65;;;4.28;;
39958;SDS011;25639;53.634;9.880;2023-06-22T02:39:39;6.82;;;3.97;;
39958;SDS011;25639;53.634;9.880;2023-06-22T02:42:05;6.95;;;4.20;;
39958;SDS011;25639;53.634;9.880;2023-06-22T02:44:30;4.93;;;4.07;;
39958;SDS011;25639;53.634;9.880;2023-06-22T02:46:56;5.72;;;4.60;;
39958;SDS011;25639;53.634;9.880;2023-06-22T02:49:21;5.60;;;4.85;;
39958;SDS011;25639;53.634;9.880;2023-06-22T02:51:47;5.75;;;4.65;;
39958;SDS011;25639;53.634;9.880;2023-06-22T02:54:13;7.70;;;4.70;;
39958;SDS011;25639;53.634;9.880;2023-06-22T02:56:38;8.50;;;4.80;;
39958;SDS011;25639;53.634;9.880;2023-06-22T02:59:05;6.10;;;5.10;;
39958;SDS011;25639;53.634;9.880;2023-06-22T03:01:31;7.15;;;4.63;;
39958;SDS011;25639;53.634;9.880;2023-06-22T03:04:04;6.30;;;4.38;;
39958;SDS011;25639;53.634;9.880;2023-06-22T03:06:30;7.97;;;5.53;;
39958;SDS011;25639;53.634;9.880;2023-06-22T03:08:59;6.68;;;5.45;;
39958;SDS011;25639;53.634;9.880;2023-06-22T03:11:26;9.63;;;5.70;;
39958;SDS011;25639;53.634;9.880;2023-06-22T03:13:51;9.55;;;6.30;;
39958;SDS011;25639;53.634;9.880;2023-06-22T03:16:17;8.70;;;6.00;;
39958;SDS011;25639;53.634;9.880;2023-06-22T03:18:43;8.10;;;6.10;;
39958;SDS011;25639;53.634;9.880;2023-06-22T03:21:09;6.32;;;4.72;;
39958;SDS011;25639;53.634;9.880;2023-06-22T03:23:34;8.93;;;5.30;;
39958;SDS011;25639;53.634;9.880;2023-06-22T03:25:59;7.63;;;6.13;;
39958;SDS011;25639;53.634;9.880;2023-06-22T03:28:25;8.80;;;6.53;;
39958;SDS011;25639;53.634;9.880;2023-06-22T03:30:50;7.88;;;5.82;;
39958;SDS011;25639;53.634;9.880;2023-06-22T03:33:15;9.68;;;6.57;;
39958;SDS011;25639;53.634;9.880;2023-06-22T03:35:41;9.15;;;6.95;;
39958;SDS011;25639;53.634;9.880;2023-06-22T03:38:07;9.55;;;6.38;;
39958;SDS011;25639;53.634;9.880;2023-06-22T03:40:32;8.43;;;6.35;;
39958;SDS011;25639;53.634;9.880;2023-06-22T03:42:57;10.25;;;7.30;;
39958;SDS011;25639;53.634;9.880;2023-06-22T03:45:22;10.88;;;7.07;;
39958;SDS011;25639;53.634;9.880;2023-06-22T03:47:48;10.57;;;7.00;;
39958;SDS011;25639;53.634;9.880;2023-06-22T03:50:13;11.23;;;8.18;;
39958;SDS011;25639;53.634;9.880;2023-06-22T03:52:39;9.60;;;6.55;;
39958;SDS011;25639;53.634;9.880;2023-06-22T03:55:05;13.82;;;7.13;;
39958;SDS011;25639;53.634;9.880;2023-06-22T03:57:31;9.88;;;6.60;;
39958;SDS011;25639;53.634;9.880;2023-06-22T03:59:57;12.95;;;8.52;;
39958;SDS011;25639;53.634;9.880;2023-06-22T04:02:23;11.45;;;8.00;;
39958;SDS011;25639;53.634;9.880;2023-06-22T04:04:48;15.55;;;10.77;;
39958;SDS011;25639;53.634;9.880;2023-06-22T04:07:13;13.80;;;9.25;;
39958;SDS011;25639;53.634;9.880;2023-06-22T04:09:38;18.13;;;10.93;;
39958;SDS011;25639;53.634;9.880;2023-06-22T04:12:04;17.65;;;10.32;;
39958;SDS011;25639;53.634;9.880;2023-06-22T04:14:30;18.73;;;11.13;;
39958;SDS011;25639;53.634;9.880;2023-06-22T04:16:55;12.50;;;8.68;;
39958;SDS011;25639;53.634;9.880;2023-06-22T04:19:20;12.70;;;9.48;;
39958;SDS011;25639;53.634;9.880;2023-06-22T04:21:46;13.00;;;9.13;;
39958;SDS011;25639;53.634;9.880;2023-06-22T04:24:13;13.95;;;9.05;;
39958;SDS011;25639;53.634;9.880;2023-06-22T04:26:39;14.50;;;9.80;;
39958;SDS011;25639;53.634;9.880;2023-06-22T04:29:06;13.35;;;8.10;;
39958;SDS011;25639;53.634;9.880;2023-06-22T04:31:33;10.80;;;8.05;;
39958;SDS011;25639;53.634;9.880;2023-06-22T04:34:02;15.32;;;9.57;;
39958;SDS011;25639;53.634;9.880;2023-06-22T04:36:35;17.90;;;9.95;;
39958;SDS011;25639;53.634;9.880;2023-06-22T04:39:11;16.15;;;9.90;;
39958;SDS011;25639;53.634;9.880;2023-06-22T04:41:37;15.05;;;9.45;;
39958;SDS011;25639;53.634;9.880;2023-06-22T04:44:09;13.13;;;8.35;;
39958;SDS011;25639;53.634;9.880;2023-06-22T04:46:35;15.13;;;10.10;;
39958;SDS011;25639;53.634;9.880;2023-06-22T04:49:04;14.65;;;9.93;;
39958;SDS011;25639;53.634;9.880;2023-06-22T04:51:31;14.32;;;9.40;;
39958;SDS011;25639;53.634;9.880;2023-06-22T04:53:56;14.68;;;9.77;;
39958;SDS011;25639;53.634;9.880;2023-06-22T04:56:25;15.43;;;10.30;;
39958;SDS011;25639;53.634;9.880;2023-06-22T04:58:53;17.13;;;9.65;;
39958;SDS011;25639;53.634;9.880;2023-06-22T05:01:20;12.25;;;8.27;;
39958;SDS011;25639;53.634;9.880;2023-06-22T05:03:47;13.80;;;9.52;;
39958;SDS011;25639;53.634;9.880;2023-06-22T05:06:13;12.02;;;8.73;;
39958;SDS011;25639;53.634;9.880;2023-06-22T05:08:39;17.08;;;9.00;;
39958;SDS011;25639;53.634;9.880;2023-06-22T05:11:04;12.75;;;8.77;;
39958;SDS011;25639;53.634;9.880;2023-06-22T05:13:30;10.95;;;7.93;;
39958;SDS011;25639;53.634;9.880;2023-06-22T05:15:55;13.80;;;9.02;;
39958;SDS011;25639;53.634;9.880;2023-06-22T05:18:26;11.70;;;7.57;;
39958;SDS011;25639;53.634;9.880;2023-06-22T05:20:52;16.05;;;7.80;;
39958;SDS011;25639;53.634;9.880;2023-06-22T05:23:18;11.35;;;7.45;;
39958;SDS011;25639;53.634;9.880;2023-06-22T05:25:44;12.32;;;8.00;;
39958;SDS011;25639;53.634;9.880;2023-06-22T05:28:09;11.73;;;6.85;;
39958;SDS011;25639;53.634;9.880;2023-06-22T05:30:36;10.98;;;6.40;;
39958;SDS011;25639;53.634;9.880;2023-06-22T05:33:01;8.98;;;5.97;;
39958;SDS011;25639;53.634;9.880;2023-06-22T05:35:26;7.28;;;5.05;;
39958;SDS011;25639;53.634;9.880;2023-06-22T05:37:52;7.50;;;4.95;;
39958;SDS011;25639;53.634;9.880;2023-06-22T05:40:17;11.82;;;4.88;;
39958;SDS011;25639;53.634;9.880;2023-06-22T05:42:42;12.02;;;5.18;;
39958;SDS011;25639;53.634;9.880;2023-06-22T05:45:08;9.13;;;4.82;;
39958;SDS011;25639;53.634;9.880;2023-06-22T05:47:34;9.00;;;4.00;;
39958;SDS011;25639;53.634;9.880;2023-06-22T05:49:59;5.63;;;3.63;;
39958;SDS011;25639;53.634;9.880;2023-06-22T05:52:24;8.68;;;4.07;;
39958;SDS011;25639;53.634;9.880;2023-06-22T05:54:50;6.95;;;3.88;;
39958;SDS011;25639;53.634;9.880;2023-06-22T05:57:15;12.27;;;4.25;;
39958;SDS011;25639;53.634;9.880;2023-06-22T05:59:41;13.30;;;3.85;;
39958;SDS011;25639;53.634;9.880;2023-06-22T06:02:06;6.43;;;3.78;;
39958;SDS011;25639;53.634;9.880;2023-06-22T06:04:31;5.38;;;3.75;;
39958;SDS011;25639;53.634;9.880;2023-06-22T06:06:56;6.15;;;3.10;;
39958;SDS011;25639;53.634;9.880;2023-06-22T06:09:22;5.03;;;3.47;;
39958;SDS011;25639;53.634;9.880;2023-06-22T06:11:47;6.20;;;3.53;;
39958;SDS011;25639;53.634;9.880;2023-06-22T06:14:13;6.38;;;3.25;;
39958;SDS011;25639;53.634;9.880;2023-06-22T06:16:38;6.70;;;3.25;;
39958;SDS011;25639;53.634;9.880;2023-06-22T06:19:03;9.90;;;2.97;;
39958;SDS011;25639;53.634;9.880;2023-06-22T06:21:29;5.78;;;3.38;;
39958;SDS011;25639;53.634;9.880;2023-06-22T06:23:54;3.95;;;3.15;;
39958;SDS011;25639;53.634;9.880;2023-06-22T06:26:19;3.45;;;2.42;;
39958;SDS011;25639;53.634;9.880;2023-06-22T06:28:52;6.63;;;2.85;;
39958;SDS011;25639;53.634;9.880;2023-06-22T06:31:18;4.18;;;2.63;;
39958;SDS011;25639;53.634;9.880;2023-06-22T06:33:43;4.93;;;2.65;;
39958;SDS011;25639;53.634;9.880;2023-06-22T06:36:08;6.13;;;2.78;;
39958;SDS011;25639;53.634;9.880;2023-06-22T06:38:33;5.20;;;2.58;;
39958;SDS011;25639;53.634;9.880;2023-06-22T06:40:59;4.03;;;2.70;;
39958;SDS011;25639;53.634;9.880;2023-06-22T06:43:24;3.90;;;2.47;;
39958;SDS011;25639;53.634;9.880;2023-06-22T06:45:50;9.63;;;2.97;;
39958;SDS011;25639;53.634;9.880;2023-06-22T06:48:15;6.38;;;2.72;;
39958;SDS011;25639;53.634;9.880;2023-06-22T06:50:42;4.00;;;2.67;;
39958;SDS011;25639;53.634;9.880;2023-06-22T06:53:08;6.50;;;2.67;;
39958;SDS011;25639;53.634;9.880;2023-06-22T06:55:34;5.35;;;2.50;;
39958;SDS011;25639;53.634;9.880;2023-06-22T06:57:59;4.40;;;2.65;;
39958;SDS011;25639;53.634;9.880;2023-06-22T07:00:25;7.05;;;2.60;;
39958;SDS011;25639;53.634;9.880;2023-06-22T07:02:51;5.05;;;2.88;;
39958;SDS011;25639;53.634;9.880;2023-06-22T07:05:17;4.72;;;2.75;;
39958;SDS011;25639;53.634;9.880;2023-06-22T07:07:42;5.10;;;3.28;;
39958;SDS011;25639;53.634;9.880;2023-06-22T07:10:08;7.70;;;3.17;;
39958;SDS011;25639;53.634;9.880;2023-06-22T07:12:34;4.53;;;2.75;;
39958;SDS011;25639;53.634;9.880;2023-06-22T07:15:06;5.60;;;3.25;;
39958;SDS011;25639;53.634;9.880;2023-06-22T07:17:33;6.13;;;2.90;;
39958;SDS011;25639;53.634;9.880;2023-06-22T07:19:58;6.40;;;2.40;;
39958;SDS011;25639;53.634;9.880;2023-06-22T07:22:24;6.68;;;2.85;;
39958;SDS011;25639;53.634;9.880;2023-06-22T07:24:49;5.40;;;2.90;;
39958;SDS011;25639;53.634;9.880;2023-06-22T07:27:14;3.95;;;2.72;;
39958;SDS011;25639;53.634;9.880;2023-06-22T07:29:43;5.05;;;2.65;;
39958;SDS011;25639;53.634;9.880;2023-06-22T07:32:08;5.78;;;2.75;;
39958;SDS011;25639;53.634;9.880;2023-06-22T07:34:34;17.10;;;3.13;;
39958;SDS011;25639;53.634;9.880;2023-06-22T07:36:59;3.50;;;2.40;;
39958;SDS011;25639;53.634;9.880;2023-06-22T07:39:24;7.25;;;3.03;;
39958;SDS011;25639;53.634;9.880;2023-06-22T07:41:51;12.45;;;3.17;;
39958;SDS011;25639;53.634;9.880;2023-06-22T07:44:17;5.68;;;2.60;;
39958;SDS011;25639;53.634;9.880;2023-06-22T07:46:42;4.88;;;2.78;;
39958;SDS011;25639;53.634;9.880;2023-06-22T07:49:07;12.73;;;3.00;;
39958;SDS011;25639;53.634;9.880;2023-06-22T07:51:33;12.70;;;3.13;;
39958;SDS011;25639;53.634;9.880;2023-06-22T07:53:58;3.95;;;2.65;;
39958;SDS011;25639;53.634;9.880;2023-06-22T07:56:24;10.38;;;2.88;;
39958;SDS011;25639;53.634;9.880;2023-06-22T07:58:49;8.23;;;3.30;;
39958;SDS011;25639;53.634;9.880;2023-06-22T08:01:14;5.72;;;2.80;;
39958;SDS011;25639;53.634;9.880;2023-06-22T08:03:40;4.22;;;2.80;;
39958;SDS011;25639;53.634;9.880;2023-06-22T08:06:06;6.22;;;2.92;;
39958;SDS011;25639;53.634;9.880;2023-06-22T08:08:34;6.00;;;2.70;;
39958;SDS011;25639;53.634;9.880;2023-06-22T08:10:59;5.18;;;2.47;;
39958;SDS011;25639;53.634;9.880;2023-06-22T08:13:24;3.92;;;2.50;;
39958;SDS011;25639;53.634;9.880;2023-06-22T08:15:50;8.18;;;2.97;;
39958;SDS011;25639;53.634;9.880;2023-06-22T08:18:15;5.40;;;3.10;;
39958;SDS011;25639;53.634;9.880;2023-06-22T08:20:41;4.95;;;2.70;;
39958;SDS011;25639;53.634;9.880;2023-06-22T08:23:07;3.83;;;2.70;;
39958;SDS011;25639;53.634;9.880;2023-06-22T08:25:32;5.38;;;2.90;;
39958;SDS011;25639;53.634;9.880;2023-06-22T08:27:59;4.85;;;3.00;;
39958;SDS011;25639;53.634;9.880;2023-06-22T08:30:25;5.75;;;2.53;;
39958;SDS011;25639;53.634;9.880;2023-06-22T08:32:50;3.40;;;2.25;;
39958;SDS011;25639;53.634;9.880;2023-06-22T08:35:15;3.88;;;2.28;;
39958;SDS011;25639;53.634;9.880;2023-06-22T08:37:41;5.03;;;2.47;;
39958;SDS011;25639;53.634;9.880;2023-06-22T08:40:07;7.25;;;2.33;;
39958;SDS011;25639;53.634;9.880;2023-06-22T08:42:34;3.65;;;2.60;;
39958;SDS011;25639;53.634;9.880;2023-06-22T08:45:00;3.10;;;2.53;;
39958;SDS011;25639;53.634;9.880;2023-06-22T08:47:27;4.93;;;2.70;;
39958;SDS011;25639;53.634;9.880;2023-06-22T08:49:52;10.45;;;2.40;;
39958;SDS011;25639;53.634;9.880;2023-06-22T08:52:18;3.25;;;2.42;;
39958;SDS011;25639;53.634;9.880;2023-06-22T08:54:44;3.65;;;2.30;;
39958;SDS011;25639;53.634;9.880;2023-06-22T08:57:10;3.72;;;2.45;;
39958;SDS011;25639;53.634;9.880;2023-06-22T08:59:35;6.53;;;2.30;;
39958;SDS011;25639;53.634;9.880;2023-06-22T09:02:01;7.22;;;2.53;;
39958;SDS011;25639;53.634;9.880;2023-06-22T09:04:26;3.20;;;2.00;;
39958;SDS011;25639;53.634;9.880;2023-06-22T09:06:51;3.20;;;2.30;;
39958;SDS011;25639;53.634;9.880;2023-06-22T09:09:17;3.72;;;2.60;;
39958;SDS011;25639;53.634;9.880;2023-06-22T09:11:43;5.28;;;2.40;;
39958;SDS011;25639;53.634;9.880;2023-06-22T09:14:09;10.57;;;2.85;;
39958;SDS011;25639;53.634;9.880;2023-06-22T09:16:34;14.48;;;3.22;;
39958;SDS011;25639;53.634;9.880;2023-06-22T09:19:00;3.35;;;2.42;;
39958;SDS011;25639;53.634;9.880;2023-06-22T09:21:25;4.75;;;2.88;;
39958;SDS011;25639;53.634;9.880;2023-06-22T09:23:51;4.90;;;2.65;;
39958;SDS011;25639;53.634;9.880;2023-06-22T09:26:19;5.18;;;3.10;;
39958;SDS011;25639;53.634;9.880;2023-06-22T09:28:45;5.10;;;3.40;;
39958;SDS011;25639;53.634;9.880;2023-06-22T09:31:11;3.17;;;2.40;;
39958;SDS011;25639;53.634;9.880;2023-06-22T09:33:36;6.93;;;2.97;;
39958;SDS011;25639;53.634;9.880;2023-06-22T09:36:03;6.05;;;3.08;;
39958;SDS011;25639;53.634;9.880;2023-06-22T09:38:32;6.07;;;2.92;;
39958;SDS011;25639;53.634;9.880;2023-06-22T09:41:00;5.72;;;3.33;;
39958;SDS011;25639;53.634;9.880;2023-06-22T09:43:25;5.80;;;3.17;;
39958;SDS011;25639;53.634;9.880;2023-06-22T09:45:50;7.13;;;3.50;;
39958;SDS011;25639;53.634;9.880;2023-06-22T09:48:16;3.75;;;2.97;;
39958;SDS011;25639;53.634;9.880;2023-06-22T09:50:41;3.92;;;2.90;;
39958;SDS011;25639;53.634;9.880;2023-06-22T09:53:06;22.70;;;4.00;;
39958;SDS011;25639;53.634;9.880;2023-06-22T09:55:31;4.97;;;3.55;;
39958;SDS011;25639;53.634;9.880;2023-06-22T09:57:57;6.10;;;3.57;;
39958;SDS011;25639;53.634;9.880;2023-06-22T10:00:22;7.22;;;2.92;;
39958;SDS011;25639;53.634;9.880;2023-06-22T10:02:47;7.57;;;2.90;;
39958;SDS011;25639;53.634;9.880;2023-06-22T10:05:13;6.53;;;3.40;;
39958;SDS011;25639;53.634;9.880;2023-06-22T10:07:38;5.50;;;3.40;;
39958;SDS011;25639;53.634;9.880;2023-06-22T10:10:07;5.25;;;3.25;;
39958;SDS011;25639;53.634;9.880;2023-06-22T10:12:33;9.57;;;3.72;;
39958;SDS011;25639;53.634;9.880;2023-06-22T10:14:58;6.22;;;3.08;;
39958;SDS011;25639;53.634;9.880;2023-06-22T10:17:23;9.52;;;3.28;;
39958;SDS011;25639;53.634;9.880;2023-06-22T10:19:49;5.90;;;3.10;;
39958;SDS011;25639;53.634;9.880;2023-06-22T10:22:14;6.13;;;2.87;;
39958;SDS011;25639;53.634;9.880;2023-06-22T10:24:39;5.95;;;3.22;;
39958;SDS011;25639;53.634;9.880;2023-06-22T10:27:09;6.78;;;3.45;;
39958;SDS011;25639;53.634;9.880;2023-06-22T10:29:38;7.07;;;3.80;;
39958;SDS011;25639;53.634;9.880;2023-06-22T10:32:04;7.28;;;3.35;;
39958;SDS011;25639;53.634;9.880;2023-06-22T10:34:29;5.80;;;3.72;;
39958;SDS011;25639;53.634;9.880;2023-06-22T10:36:54;7.43;;;4.13;;
39958;SDS011;25639;53.634;9.880;2023-06-22T10:39:20;5.10;;;3.65;;
39958;SDS011;25639;53.634;9.880;2023-06-22T10:41:45;8.10;;;3.40;;
39958;SDS011;25639;53.634;9.880;2023-06-22T10:44:10;7.45;;;2.90;;
39958;SDS011;25639;53.634;9.880;2023-06-22T10:46:37;6.20;;;3.45;;
39958;SDS011;25639;53.634;9.880;2023-06-22T10:49:02;5.38;;;3.58;;
39958;SDS011;25639;53.634;9.880;2023-06-22T10:51:27;5.18;;;3.00;;
39958;SDS011;25639;53.634;9.880;2023-06-22T10:53:53;7.75;;;3.90;;
39958;SDS011;25639;53.634;9.880;2023-06-22T10:56:18;9.52;;;3.80;;
39958;SDS011;25639;53.634;9.880;2023-06-22T10:58:44;6.88;;;3.97;;
39958;SDS011;25639;53.634;9.880;2023-06-22T11:01:10;5.43;;;3.38;;
39958;SDS011;25639;53.634;9.880;2023-06-22T11:03:35;5.97;;;3.05;;
39958;SDS011;25639;53.634;9.880;2023-06-22T11:06:01;4.60;;;2.83;;
39958;SDS011;25639;53.634;9.880;2023-06-22T11:08:26;6.57;;;3.30;;
39958;SDS011;25639;53.634;9.880;2023-06-22T11:10:51;4.72;;;3.53;;
39958;SDS011;25639;53.634;9.880;2023-06-22T11:13:17;7.55;;;3.70;;
39958;SDS011;25639;53.634;9.880;2023-06-22T11:15:42;5.90;;;3.22;;
39958;SDS011;25639;53.634;9.880;2023-06-22T11:18:08;4.93;;;3.40;;
39958;SDS011;25639;53.634;9.880;2023-06-22T11:20:33;5.47;;;3.33;;
39958;SDS011;25639;53.634;9.880;2023-06-22T11:23:03;4.22;;;3.20;;
39958;SDS011;25639;53.634;9.880;2023-06-22T11:25:29;7.15;;;3.33;;
39958;SDS011;25639;53.634;9.880;2023-06-22T11:27:54;3.87;;;3.20;;
39958;SDS011;25639;53.634;9.880;2023-06-22T11:30:19;4.68;;;3.40;;
39958;SDS011;25639;53.634;9.880;2023-06-22T11:32:45;5.70;;;2.97;;
39958;SDS011;25639;53.634;9.880;2023-06-22T11:35:10;3.75;;;3.05;;
39958;SDS011;25639;53.634;9.880;2023-06-22T11:37:35;7.80;;;2.92;;
39958;SDS011;25639;53.634;9.880;2023-06-22T11:40:01;6.88;;;3.15;;
39958;SDS011;25639;53.634;9.880;2023-06-22T11:42:29;4.60;;;2.92;;
39958;SDS011;25639;53.634;9.880;2023-06-22T11:44:55;4.07;;;3.28;;
39958;SDS011;25639;53.634;9.880;2023-06-22T11:47:20;6.97;;;3.90;;
39958;SDS011;25639;53.634;9.880;2023-06-22T11:49:45;5.05;;;3.30;;
39958;SDS011;25639;53.634;9.880;2023-06-22T11:52:11;5.63;;;3.92;;
39958;SDS011;25639;53.634;9.880;2023-06-22T11:54:36;4.40;;;3.05;;
39958;SDS011;25639;53.634;9.880;2023-06-22T11:57:03;6.82;;;3.42;;
39958;SDS011;25639;53.634;9.880;2023-06-22T11:59:29;7.93;;;4.03;;
39958;SDS011;25639;53.634;9.880;2023-06-22T12:01:54;5.63;;;3.50;;
39958;SDS011;25639;53.634;9.880;2023-06-22T12:04:19;8.45;;;4.20;;
39958;SDS011;25639;53.634;9.880;2023-06-22T12:06:45;6.85;;;3.95;;
39958;SDS011;25639;53.634;9.880;2023-06-22T12:09:10;4.90;;;3.28;;
39958;SDS011;25639;53.634;9.880;2023-06-22T12:11:35;4.50;;;3.40;;
39958;SDS011;25639;53.634;9.880;2023-06-22T12:14:01;8.27;;;3.60;;
39958;SDS011;25639;53.634;9.880;2023-06-22T12:16:30;5.88;;;3.70;;
39958;SDS011;25639;53.634;9.880;2023-06-22T12:18:55;4.40;;;3.78;;
39958;SDS011;25639;53.634;9.880;2023-06-22T12:21:20;7.95;;;3.72;;
39958;SDS011;25639;53.634;9.880;2023-06-22T12:23:46;5.75;;;3.65;;
39958;SDS011;25639;53.634;9.880;2023-06-22T12:26:11;4.80;;;3.27;;
39958;SDS011;25639;53.634;9.880;2023-06-22T12:28:36;6.40;;;3.33;;
39958;SDS011;25639;53.634;9.880;2023-06-22T12:31:01;5.03;;;3.25;;
39958;SDS011;25639;53.634;9.880;2023-06-22T12:33:27;5.95;;;4.00;;
39958;SDS011;25639;53.634;9.880;2023-06-22T12:35:52;5.63;;;3.83;;
39958;SDS011;25639;53.634;9.880;2023-06-22T12:38:17;5.75;;;3.72;;
39958;SDS011;25639;53.634;9.880;2023-06-22T12:40:42;7.88;;;4.40;;
39958;SDS011;25639;53.634;9.880;2023-06-22T12:43:08;5.07;;;3.65;;
39958;SDS011;25639;53.634;9.880;2023-06-22T12:45:33;7.50;;;3.85;;
39958;SDS011;25639;53.634;9.880;2023-06-22T12:47:59;7.07;;;3.70;;
39958;SDS011;25639;53.634;9.880;2023-06-22T12:50:25;5.72;;;3.50;;
39958;SDS011;25639;53.634;9.880;2023-06-22T12:52:50;7.20;;;3.72;;
39958;SDS011;25639;53.634;9.880;2023-06-22T12:55:15;6.32;;;3.70;;
39958;SDS011;25639;53.634;9.880;2023-06-22T12:57:41;6.03;;;3.70;;
39958;SDS011;25639;53.634;9.880;2023-06-22T13:00:06;5.70;;;4.00;;
39958;SDS011;25639;53.634;9.880;2023-06-22T13:02:33;9.20;;;3.88;;
39958;SDS011;25639;53.634;9.880;2023-06-22T13:04:58;7.90;;;3.87;;
39958;SDS011;25639;53.634;9.880;2023-06-22T13:07:24;6.32;;;4.20;;
39958;SDS011;25639;53.634;9.880;2023-06-22T13:09:49;6.13;;;3.83;;
39958;SDS011;25639;53.634;9.880;2023-06-22T13:12:19;6.28;;;3.92;;
39958;SDS011;25639;53.634;9.880;2023-06-22T13:14:45;6.82;;;3.60;;
39958;SDS011;25639;53.634;9.880;2023-06-22T13:17:11;6.60;;;4.05;;
39958;SDS011;25639;53.634;9.880;2023-06-22T13:19:37;5.25;;;3.70;;
39958;SDS011;25639;53.634;9.880;2023-06-22T13:22:02;7.78;;;4.60;;
39958;SDS011;25639;53.634;9.880;2023-06-22T13:24:29;5.55;;;4.10;;
39958;SDS011;25639;53.634;9.880;2023-06-22T13:26:54;6.05;;;4.45;;
39958;SDS011;25639;53.634;9.880;2023-06-22T13:29:20;8.73;;;4.35;;
39958;SDS011;25639;53.634;9.880;2023-06-22T13:31:45;5.00;;;4.30;;
39958;SDS011;25639;53.634;9.880;2023-06-22T13:34:10;5.00;;;4.43;;
39958;SDS011;25639;53.634;9.880;2023-06-22T13:36:35;6.97;;;5.07;;
39958;SDS011;25639;53.634;9.880;2023-06-22T13:39:01;5.10;;;4.60;;
39958;SDS011;25639;53.634;9.880;2023-06-22T13:41:26;6.15;;;5.25;;
39958;SDS011;25639;53.634;9.880;2023-06-22T13:43:51;12.35;;;4.75;;
39958;SDS011;25639;53.634;9.880;2023-06-22T13:46:17;6.90;;;4.75;;
39958;SDS011;25639;53.634;9.880;2023-06-22T13:48:42;7.35;;;5.13;;
39958;SDS011;25639;53.634;9.880;2023-06-22T13:51:07;8.35;;;5.13;;
39958;SDS011;25639;53.634;9.880;2023-06-22T13:53:33;8.55;;;5.68;;
39958;SDS011;25639;53.634;9.880;2023-06-22T13:55:58;7.90;;;5.15;;
39958;SDS011;25639;53.634;9.880;2023-06-22T13:58:23;8.23;;;5.68;;
39958;SDS011;25639;53.634;9.880;2023-06-22T14:00:48;9.57;;;5.50;;
39958;SDS011;25639;53.634;9.880;2023-06-22T14:03:14;9.05;;;6.30;;
39958;SDS011;25639;53.634;9.880;2023-06-22T14:05:41;7.90;;;6.25;;
39958;SDS011;25639;53.634;9.880;2023-06-22T14:08:07;6.97;;;5.43;;
39958;SDS011;25639;53.634;9.880;2023-06-22T14:10:32;10.30;;;5.35;;
39958;SDS011;25639;53.634;9.880;2023-06-22T14:12:57;10.50;;;5.95;;
39958;SDS011;25639;53.634;9.880;2023-06-22T14:15:24;5.65;;;4.68;;
39958;SDS011;25639;53.634;9.880;2023-06-22T14:17:50;8.00;;;5.18;;
39958;SDS011;25639;53.634;9.880;2023-06-22T14:20:15;20.45;;;5.50;;
39958;SDS011;25639;53.634;9.880;2023-06-22T14:22:40;14.40;;;5.30;;
39958;SDS011;25639;53.634;9.880;2023-06-22T14:25:06;6.03;;;5.10;;
39958;SDS011;25639;53.634;9.880;2023-06-22T14:27:31;8.90;;;4.75;;
39958;SDS011;25639;53.634;9.880;2023-06-22T14:29:57;5.55;;;4.68;;
39958;SDS011;25639;53.634;9.880;2023-06-22T14:32:22;6.38;;;4.45;;
39958;SDS011;25639;53.634;9.880;2023-06-22T14:34:47;6.50;;;4.35;;
39958;SDS011;25639;53.634;9.880;2023-06-22T14:37:15;6.13;;;4.22;;
39958;SDS011;25639;53.634;9.880;2023-06-22T14:39:40;4.93;;;4.28;;
39958;SDS011;25639;53.634;9.880;2023-06-22T14:42:05;7.22;;;4.20;;